createdAt,value
2018-10-18T00:00:20.065Z,72.32
2018-10-18T00:02:49.408Z,72.49
2018-10-18T00:05:17.904Z,72.75
2018-10-18T00:07:46.567Z,72.83
2018-10-18T00:10:15.079Z,72.75
2018-10-18T00:12:43.563Z,72.15
2018-10-18T00:15:12.372Z,73.14
2018-10-18T00:17:47.782Z,72.28
2018-10-18T00:20:17.223Z,72.58
2018-10-18T00:22:46.219Z,72.49
2018-10-18T00:25:15.415Z,72.42
2018-10-18T00:27:44.078Z,73.27
2018-10-18T00:30:13.888Z,73.82
2018-10-18T00:32:43.410Z,73.65
2018-10-18T00:35:12.297Z,74.01
2018-10-18T00:37:40.899Z,73.74
2018-10-18T00:40:10.797Z,73.89
2018-10-18T00:42:39.379Z,72.91
2018-10-18T00:45:09.387Z,73.15
2018-10-18T00:47:37.971Z,73.19
2018-10-18T00:50:07.826Z,73.05
2018-10-18T00:52:36.346Z,73.16
2018-10-18T00:55:04.946Z,74.16
2018-10-18T00:57:33.486Z,73.80
2018-10-18T01:00:02.354Z,73.78
2018-10-18T01:02:30.922Z,73.11
2018-10-18T01:04:59.418Z,72.75
2018-10-18T01:07:27.907Z,73.03
2018-10-18T01:09:56.483Z,72.90
2018-10-18T01:12:25.144Z,73.60
2018-10-18T01:14:53.499Z,73.55
2018-10-18T01:17:22.025Z,73.79
2018-10-18T01:19:50.575Z,73.46
2018-10-18T01:22:19.115Z,74.03
2018-10-18T01:24:47.659Z,74.10
2018-10-18T01:27:16.218Z,73.86
2018-10-18T01:46:59.958Z,74.42
2018-10-18T01:49:28.430Z,75.43
2018-10-18T01:51:56.959Z,74.03
2018-10-18T01:54:25.462Z,74.63
2018-10-18T01:56:53.961Z,74.91
2018-10-18T01:59:22.451Z,74.98
2018-10-18T02:01:51.807Z,74.74
2018-10-18T02:04:20.438Z,74.80
2018-10-18T02:06:48.959Z,75.21
2018-10-18T02:09:17.499Z,75.28
2018-10-18T02:11:46.018Z,75.03
2018-10-18T02:14:14.578Z,74.62
2018-10-18T02:16:43.090Z,74.84
2018-10-18T02:19:11.771Z,74.88
2018-10-18T02:21:40.220Z,74.63
2018-10-18T02:24:08.817Z,74.42
2018-10-18T02:26:37.247Z,74.30
2018-10-18T02:29:05.852Z,74.02
2018-10-18T02:31:34.354Z,73.94
2018-10-18T02:34:02.891Z,74.11
2018-10-18T02:36:31.386Z,73.78
2018-10-18T02:38:59.878Z,73.48
2018-10-18T02:41:28.379Z,73.72
2018-10-18T02:43:56.872Z,73.75
2018-10-18T02:46:25.382Z,74.12
2018-10-18T02:48:53.913Z,74.38
2018-10-18T02:51:22.447Z,74.24
2018-10-18T02:53:51.076Z,74.66
2018-10-18T02:56:19.586Z,74.28
2018-10-18T02:58:48.113Z,74.77
2018-10-18T03:01:16.686Z,74.94
2018-10-18T03:03:46.313Z,74.96
2018-10-18T03:06:15.009Z,74.87
2018-10-18T03:08:44.054Z,75.38
2018-10-18T03:11:12.539Z,75.06
2018-10-18T03:16:09.114Z,74.90
2018-10-18T03:18:37.579Z,75.04
2018-10-18T03:21:06.096Z,74.73
2018-10-18T03:23:34.582Z,74.61
2018-10-18T03:26:03.137Z,74.31
2018-10-18T03:28:31.622Z,74.36
2018-10-18T03:31:00.111Z,74.62
2018-10-18T03:33:28.607Z,74.51
2018-10-18T03:35:57.196Z,74.67
2018-10-18T03:38:25.617Z,75.16
2018-10-18T03:40:54.131Z,75.13
2018-10-18T03:43:22.684Z,75.18
2018-10-18T03:45:51.199Z,75.42
2018-10-18T03:48:19.900Z,75.45
2018-10-18T03:50:48.387Z,75.68
2018-10-18T03:53:16.899Z,75.51
2018-10-18T03:55:45.390Z,75.56
2018-10-18T03:58:13.884Z,75.22
2018-10-18T04:00:42.391Z,75.52
2018-10-18T04:03:10.919Z,75.90
2018-10-18T04:05:39.415Z,76.03
2018-10-18T04:08:07.963Z,75.75
2018-10-18T04:10:36.466Z,75.85
2018-10-18T04:13:05.059Z,75.58
2018-10-18T04:15:33.493Z,75.87
2018-10-18T04:18:02.205Z,75.88
2018-10-18T04:20:30.626Z,75.82
2018-10-18T04:22:59.126Z,75.43
2018-10-18T04:25:27.643Z,76.15
2018-10-18T04:27:56.270Z,76.47
2018-10-18T04:30:24.776Z,76.17
2018-10-18T04:32:53.320Z,76.67
2018-10-18T04:35:21.929Z,76.01
2018-10-18T04:37:53.266Z,75.85
2018-10-18T04:40:21.763Z,76.65
2018-10-18T04:42:50.328Z,75.79
2018-10-18T04:45:18.827Z,75.50
2018-10-18T04:47:47.469Z,75.74
2018-10-18T04:50:15.971Z,75.54
2018-10-18T04:52:44.475Z,75.86
2018-10-18T04:55:13.033Z,75.30
2018-10-18T04:57:41.504Z,75.95
2018-10-18T05:00:10.036Z,75.74
2018-10-18T05:02:38.800Z,76.53
2018-10-18T05:05:18.434Z,76.24
2018-10-18T05:07:46.939Z,76.45
2018-10-18T05:10:15.439Z,76.07
2018-10-18T05:12:44.169Z,75.76
2018-10-18T05:15:12.426Z,75.69
2018-10-18T05:17:41.055Z,75.25
2018-10-18T05:20:09.558Z,75.78
2018-10-18T05:22:38.069Z,75.42
2018-10-18T05:25:06.716Z,75.48
2018-10-18T05:27:35.152Z,75.53
2018-10-18T05:30:03.758Z,75.70
2018-10-18T05:32:32.474Z,75.79
2018-10-18T05:35:01.017Z,76.52
2018-10-18T05:37:29.534Z,76.86
2018-10-18T05:39:58.046Z,76.54
2018-10-18T05:42:26.530Z,76.72
2018-10-18T05:44:55.054Z,76.96
2018-10-18T05:47:23.599Z,76.67
2018-10-18T05:49:52.303Z,76.43
2018-10-18T05:52:20.810Z,76.57
2018-10-18T05:54:49.362Z,76.62
2018-10-18T05:57:17.943Z,76.84
2018-10-18T05:59:46.549Z,76.89
2018-10-18T06:02:15.932Z,76.65
2018-10-18T06:04:44.778Z,77.11
2018-10-18T06:07:13.811Z,77.87
2018-10-18T06:09:42.441Z,77.84
2018-10-18T06:12:10.996Z,77.58
2018-10-18T06:14:39.601Z,77.76
2018-10-18T06:17:08.222Z,78.11
2018-10-18T06:19:36.854Z,78.15
2018-10-18T06:22:05.660Z,77.54
2018-10-18T06:24:34.760Z,77.68
2018-10-18T06:27:03.532Z,78.32
2018-10-18T06:29:32.128Z,78.16
2018-10-18T06:32:00.698Z,78.38
2018-10-18T06:34:29.291Z,78.10
2018-10-18T06:36:57.979Z,78.11
2018-10-18T06:39:26.488Z,78.26
2018-10-18T06:41:55.088Z,77.75
2018-10-18T06:44:23.722Z,78.04
2018-10-18T06:46:52.362Z,77.61
2018-10-18T06:49:20.943Z,77.44
2018-10-18T06:51:49.538Z,77.45
2018-10-18T06:54:18.149Z,77.89
2018-10-18T06:56:46.741Z,77.96
2018-10-18T06:59:15.331Z,77.64
2018-10-18T07:01:43.939Z,77.55
2018-10-18T07:04:12.550Z,77.80
2018-10-18T07:06:41.164Z,77.78
2018-10-18T07:09:11.027Z,78.04
2018-10-18T07:11:39.842Z,77.92
2018-10-18T07:14:08.426Z,78.52
2018-10-18T07:16:37.047Z,78.41
2018-10-18T07:19:05.683Z,79.87
2018-10-18T07:21:34.265Z,78.68
2018-10-18T07:24:02.904Z,79.64
2018-10-18T07:26:31.571Z,80.54
2018-10-18T07:29:00.135Z,80.90
2018-10-18T07:31:28.787Z,80.96
2018-10-18T07:33:57.402Z,81.60
2018-10-18T07:36:25.988Z,81.06
2018-10-18T07:38:54.563Z,80.53
2018-10-18T07:41:23.271Z,80.39
2018-10-18T07:43:51.882Z,79.61
2018-10-18T07:46:20.590Z,79.67
2018-10-18T07:48:49.228Z,81.04
2018-10-18T07:51:17.799Z,81.70
2018-10-18T07:53:46.384Z,80.88
2018-10-18T07:56:15.138Z,80.23
2018-10-18T07:58:44.842Z,79.61
2018-10-18T08:01:13.419Z,78.98
2018-10-18T08:03:43.255Z,78.61
2018-10-18T08:06:11.862Z,77.81
2018-10-18T08:08:42.153Z,77.62
2018-10-18T08:11:10.820Z,77.47
2018-10-18T08:13:39.375Z,77.99
2018-10-18T08:16:08.040Z,77.34
2018-10-18T08:18:36.647Z,76.66
2018-10-18T08:21:05.447Z,76.71
2018-10-18T08:23:34.195Z,76.28
2018-10-18T08:26:02.807Z,76.70
2018-10-18T08:28:31.414Z,75.98
2018-10-18T08:31:00.039Z,75.92
2018-10-18T08:33:28.603Z,74.90
2018-10-18T08:35:57.230Z,74.86
2018-10-18T08:38:25.823Z,73.56
2018-10-18T08:40:54.440Z,73.41
2018-10-18T08:43:23.086Z,72.43
2018-10-18T08:45:51.843Z,72.70
2018-10-18T08:48:20.473Z,72.17
2018-10-18T08:50:49.075Z,71.17
2018-10-18T08:53:17.663Z,70.03
2018-10-18T08:55:46.332Z,69.71
2018-10-18T08:58:14.919Z,70.73
2018-10-18T09:00:43.532Z,69.10
2018-10-18T09:03:12.103Z,66.01
2018-10-18T09:05:40.686Z,65.90
2018-10-18T09:08:09.270Z,64.58
2018-10-18T09:10:37.870Z,61.99
2018-10-18T09:13:06.646Z,60.17
2018-10-18T09:15:35.194Z,59.61
2018-10-18T09:18:03.855Z,59.00
2018-10-18T09:20:32.439Z,57.99
2018-10-18T09:23:01.137Z,56.98
2018-10-18T09:25:29.759Z,56.60
2018-10-18T09:27:58.373Z,55.66
2018-10-18T09:30:27.071Z,55.29
2018-10-18T09:32:55.586Z,56.71
2018-10-18T09:35:24.180Z,57.26
2018-10-18T09:37:52.763Z,55.67
2018-10-18T09:40:21.367Z,55.42
2018-10-18T09:42:49.992Z,52.90
2018-10-18T09:45:18.607Z,53.20
2018-10-18T09:47:47.175Z,52.70
2018-10-18T09:50:15.803Z,51.92
2018-10-18T09:52:44.532Z,50.00
2018-10-18T09:55:13.867Z,50.55
2018-10-18T09:57:42.498Z,49.76
2018-10-18T10:00:16.299Z,51.33
2018-10-18T10:02:54.666Z,51.27
2018-10-18T10:05:23.259Z,54.04
2018-10-18T10:07:51.878Z,54.30
2018-10-18T10:10:20.507Z,53.45
2018-10-18T10:12:49.164Z,54.88
2018-10-18T10:15:17.737Z,52.81
2018-10-18T10:17:46.411Z,54.66
2018-10-18T10:20:14.970Z,52.88
2018-10-18T10:25:36.594Z,49.44
2018-10-18T10:28:05.202Z,49.76
2018-10-18T10:30:33.799Z,49.24
2018-10-18T10:33:02.600Z,48.03
2018-10-18T10:35:31.223Z,48.61
2018-10-18T10:37:59.750Z,49.21
2018-10-18T10:40:28.419Z,50.34
2018-10-18T10:42:57.071Z,50.43
2018-10-18T10:45:25.679Z,49.27
2018-10-18T10:47:54.328Z,49.11
2018-10-18T10:50:22.902Z,47.28
2018-10-18T10:52:51.574Z,46.81
2018-10-18T10:55:20.275Z,47.51
2018-10-18T10:57:48.890Z,48.03
2018-10-18T11:01:30.215Z,49.66
2018-10-18T11:04:00.109Z,49.82
2018-10-18T11:06:28.743Z,49.91
2018-10-18T11:08:57.531Z,51.64
2018-10-18T11:11:26.094Z,50.49
2018-10-18T11:13:54.726Z,52.08
2018-10-18T11:16:23.342Z,51.44
2018-10-18T11:18:52.147Z,51.00
2018-10-18T11:21:20.846Z,50.58
2018-10-18T11:23:49.369Z,52.13
2018-10-18T11:26:17.989Z,51.55
2018-10-18T11:28:46.632Z,51.59
2018-10-18T11:31:15.244Z,50.97
2018-10-18T11:33:45.587Z,51.29
2018-10-18T11:36:14.268Z,52.30
2018-10-18T11:38:43.495Z,52.39
2018-10-18T11:41:12.098Z,51.55
2018-10-18T11:43:40.756Z,52.78
2018-10-18T11:46:09.354Z,51.88
2018-10-18T11:48:37.976Z,51.92
2018-10-18T11:51:06.580Z,52.38
2018-10-18T11:53:35.353Z,51.96
2018-10-18T11:56:04.007Z,53.47
2018-10-18T11:58:32.551Z,52.83
2018-10-18T12:01:01.159Z,51.46
2018-10-18T12:03:29.742Z,51.55
2018-10-18T12:05:58.389Z,51.08
2018-10-18T12:08:27.010Z,51.22
2018-10-18T12:10:55.623Z,51.20
2018-10-18T12:13:24.239Z,50.08
2018-10-18T12:15:52.843Z,51.74
2018-10-18T12:18:21.448Z,51.31
2018-10-18T12:21:05.854Z,51.39
2018-10-18T12:23:34.524Z,51.33
2018-10-18T12:26:03.142Z,51.68
2018-10-18T12:28:31.726Z,50.93
2018-10-18T12:31:00.358Z,51.12
2018-10-18T12:33:28.959Z,50.76
2018-10-18T12:35:57.543Z,50.51
2018-10-18T12:38:26.158Z,51.47
2018-10-18T12:40:54.841Z,51.13
2018-10-18T12:43:23.359Z,49.98
2018-10-18T12:45:51.969Z,50.86
2018-10-18T12:48:20.715Z,50.43
2018-10-18T12:50:49.201Z,49.79
2018-10-18T12:53:17.803Z,49.93
2018-10-18T12:55:46.465Z,50.31
2018-10-18T12:58:15.063Z,51.02
2018-10-18T13:00:43.668Z,50.84
2018-10-18T13:03:12.282Z,50.75
2018-10-18T13:05:40.899Z,51.38
2018-10-18T13:08:09.551Z,50.10
2018-10-18T13:10:38.123Z,49.93
2018-10-18T13:13:06.767Z,50.51
2018-10-18T13:15:35.351Z,50.47
2018-10-18T13:18:04.038Z,50.47
2018-10-18T13:20:32.594Z,49.71
2018-10-18T13:23:04.990Z,50.39
2018-10-18T13:25:33.600Z,50.54
2018-10-18T13:28:02.267Z,50.23
2018-10-18T13:30:30.891Z,49.79
2018-10-18T13:32:59.494Z,50.36
2018-10-18T13:35:28.087Z,50.61
2018-10-18T13:37:56.700Z,51.24
2018-10-18T13:40:25.306Z,50.80
2018-10-18T13:42:53.922Z,50.87
2018-10-18T13:45:22.530Z,51.42
2018-10-18T13:47:51.195Z,50.77
2018-10-18T13:50:19.936Z,51.03
2018-10-18T13:52:48.450Z,50.74
2018-10-18T13:55:17.056Z,50.85
2018-10-18T13:57:45.691Z,51.00
2018-10-18T14:00:25.084Z,50.64
2018-10-18T14:02:54.416Z,51.12
2018-10-18T14:05:23.706Z,51.67
2018-10-18T14:07:53.386Z,51.66
2018-10-18T14:13:14.362Z,50.92
2018-10-18T14:15:42.982Z,50.63
2018-10-18T14:18:11.628Z,51.66
2018-10-18T14:20:40.311Z,51.94
2018-10-18T14:23:08.957Z,51.61
2018-10-18T14:25:37.552Z,52.39
2018-10-18T14:28:06.621Z,52.17
2018-10-18T14:30:35.241Z,52.96
2018-10-18T14:33:03.838Z,52.52
2018-10-18T14:35:32.415Z,52.79
2018-10-18T14:38:01.063Z,52.45
2018-10-18T14:40:29.629Z,53.37
2018-10-18T14:42:58.220Z,52.94
2018-10-18T14:45:26.843Z,53.67
2018-10-18T14:47:55.530Z,53.41
2018-10-18T14:50:24.082Z,52.88
2018-10-18T14:52:52.689Z,53.86
2018-10-18T15:35:35.938Z,56.56
2018-10-18T15:49:43.021Z,58.88
2018-10-18T15:52:11.618Z,59.65
2018-10-18T16:06:09.767Z,59.54
2018-10-18T16:08:38.382Z,59.32
2018-10-18T16:11:07.151Z,59.95
2018-10-18T16:13:37.182Z,59.78
2018-10-18T16:16:06.496Z,60.01
2018-10-18T16:18:35.162Z,59.93
2018-10-18T16:21:04.063Z,59.70
2018-10-18T16:23:32.987Z,60.00
2018-10-18T16:26:01.705Z,60.22
2018-10-18T16:57:15.043Z,61.71
2018-10-18T16:59:43.629Z,61.92
2018-10-18T17:02:12.418Z,61.31
2018-10-18T17:04:40.953Z,61.71
2018-10-18T17:07:09.472Z,61.69
2018-10-18T17:09:38.115Z,62.09
2018-10-18T17:12:07.123Z,61.91
2018-10-18T17:14:35.710Z,61.50
2018-10-18T17:17:04.312Z,61.62
2018-10-18T17:19:32.924Z,61.20
2018-10-18T17:24:54.804Z,61.92
2018-10-18T17:27:23.531Z,62.65
2018-10-18T17:29:52.145Z,62.84
2018-10-18T17:32:20.837Z,63.47
2018-10-18T17:37:42.010Z,63.12
2018-10-18T17:40:11.407Z,62.03
2018-10-18T17:42:39.996Z,63.19
2018-10-18T17:45:10.547Z,63.93
2018-10-18T17:47:39.240Z,64.24
2018-10-18T17:50:08.378Z,64.08
2018-10-18T17:52:37.017Z,63.81
2018-10-18T17:55:06.581Z,64.64
2018-10-18T17:57:35.561Z,64.58
2018-10-18T18:00:05.061Z,64.70
2018-10-18T18:02:34.391Z,64.91
2018-10-18T18:05:03.011Z,65.38
2018-10-18T18:07:31.673Z,65.80
2018-10-18T18:10:00.272Z,66.68
2018-10-18T18:12:28.867Z,66.66
2018-10-18T18:14:57.521Z,66.29
2018-10-18T18:17:26.138Z,66.42
2018-10-18T18:19:54.747Z,66.60
2018-10-18T18:22:23.832Z,66.12
2018-10-18T18:24:52.444Z,66.51
2018-10-18T18:27:21.039Z,66.60
2018-10-18T18:29:49.579Z,66.44
2018-10-18T18:32:18.311Z,66.49
2018-10-18T18:34:46.927Z,66.24
2018-10-18T18:37:15.468Z,66.99
2018-10-18T18:39:44.011Z,68.43
2018-10-18T18:42:13.428Z,67.80
2018-10-18T18:44:41.962Z,68.19
2018-10-18T18:47:10.505Z,68.24
2018-10-18T18:49:39.050Z,67.81
2018-10-18T18:52:07.632Z,67.61
2018-10-18T19:34:50.172Z,71.94
2018-10-18T19:37:18.699Z,73.36
2018-10-18T19:39:47.274Z,73.34
2018-10-18T19:42:15.840Z,73.84
2018-10-18T19:44:44.358Z,73.10
2018-10-18T19:47:12.873Z,72.46
2018-10-18T19:49:41.406Z,72.02
2018-10-18T20:26:39.779Z,71.92
2018-10-18T20:29:08.298Z,71.26
2018-10-18T20:31:36.815Z,71.09
2018-10-18T20:34:05.631Z,71.28
2018-10-18T20:36:34.173Z,71.60
2018-10-18T20:39:02.845Z,71.61
2018-10-18T20:41:31.307Z,71.45
2018-10-18T20:43:59.798Z,71.32
2018-10-18T20:46:28.311Z,71.15
2018-10-18T20:48:56.853Z,72.09
2018-10-18T20:51:25.347Z,72.26
2018-10-18T20:53:53.906Z,71.35
2018-10-18T20:56:22.418Z,71.45
2018-10-18T20:58:50.941Z,71.20
2018-10-18T21:01:19.446Z,71.48
2018-10-18T21:03:47.996Z,71.83
2018-10-18T21:06:16.599Z,71.77
2018-10-18T21:08:46.094Z,71.57
2018-10-18T21:11:14.650Z,71.59
2018-10-18T21:13:46.144Z,71.39
2018-10-18T21:16:14.696Z,71.52
2018-10-18T21:18:44.575Z,71.61
2018-10-18T21:21:13.223Z,71.30
2018-10-18T21:23:43.481Z,72.15
2018-10-18T21:26:11.990Z,71.84
2018-10-18T21:28:40.567Z,73.54
2018-10-18T21:31:09.110Z,72.99
2018-10-18T21:33:37.661Z,72.11
2018-10-18T21:36:06.179Z,71.76
2018-10-18T21:38:34.663Z,71.16
2018-10-18T21:41:03.200Z,71.33
2018-10-18T21:43:31.740Z,71.56
2018-10-18T21:46:00.382Z,71.37
2018-10-18T21:48:29.709Z,71.59
2018-10-18T21:50:58.683Z,71.36
2018-10-18T21:53:27.246Z,71.72
2018-10-18T21:55:55.946Z,71.62
2018-10-18T21:58:24.432Z,71.08
2018-10-18T22:00:52.946Z,71.29
2018-10-18T22:03:21.435Z,71.34
2018-10-18T22:05:49.931Z,71.58
2018-10-18T22:08:18.417Z,71.76
2018-10-18T22:10:46.919Z,72.25
2018-10-18T22:13:15.414Z,72.51
2018-10-18T22:15:43.983Z,72.70
2018-10-18T22:18:12.482Z,72.98
2018-10-18T22:20:40.978Z,72.79
2018-10-18T22:23:09.597Z,73.85
2018-10-18T22:25:38.115Z,73.48
2018-10-18T22:28:06.721Z,75.18
2018-10-18T22:30:35.366Z,75.52
2018-10-18T22:33:03.964Z,75.06
2018-10-18T22:35:32.433Z,75.46
2018-10-18T22:40:54.336Z,75.13
2018-10-18T22:43:22.871Z,75.70
2018-10-18T22:45:56.613Z,75.59
2018-10-18T22:48:25.138Z,75.15
2018-10-18T22:50:53.688Z,75.07
2018-10-18T22:53:22.190Z,74.82
2018-10-18T22:55:50.732Z,74.52
2018-10-18T22:58:19.230Z,74.76
2018-10-18T23:00:49.061Z,74.84
2018-10-18T23:03:19.103Z,74.55
2018-10-18T23:05:48.198Z,74.69
2018-10-18T23:08:16.708Z,74.60
2018-10-18T23:10:45.654Z,76.65
2018-10-18T23:13:14.159Z,76.78
2018-10-18T23:15:42.662Z,76.51
2018-10-18T23:18:11.427Z,75.97
2018-10-18T23:20:40.829Z,75.65
2018-10-18T23:23:10.044Z,76.28
2018-10-18T23:25:38.715Z,76.17
2018-10-18T23:28:07.227Z,76.19
2018-10-18T23:30:35.749Z,77.02
2018-10-18T23:33:04.326Z,77.59
2018-10-18T23:35:32.836Z,77.80
2018-10-18T23:38:01.371Z,76.74
2018-10-18T23:40:29.878Z,76.23
2018-10-18T23:42:58.433Z,76.18
2018-10-18T23:45:26.919Z,75.86
2018-10-18T23:47:55.418Z,75.67
2018-10-18T23:50:23.927Z,75.48
2018-10-18T23:52:52.695Z,74.54
2018-10-18T23:55:21.239Z,74.50
2018-10-18T23:57:49.747Z,74.34
